Time;durP1;ratioP1;P1;durP2;ratioP2;P2;SDS_P1;SDS_P2;PMS_P1;PMS_P2;Temp;Humidity;BMP_temperature;BMP_pressure;BME280_temperature;BME280_humidity;BME280_pressure;Samples;Min_cycle;Max_cycle;Signal;HPM_P1;HPM_P2
2021/09/15 00:01:25;;;;;;;6.20;4.05;;;18.10;99.90;;;;;;4930793;29;20024;-77
2021/09/15 00:03:50;;;;;;;7.03;3.72;;;18.00;99.90;;;;;;4931420;29;20028;-78
2021/09/15 00:06:16;;;;;;;8.60;4.90;;;18.10;99.90;;;;;;4930913;29;20032;-77
2021/09/15 00:08:41;;;;;;;7.45;4.63;;;18.10;99.90;;;;;;4913966;29;20032;-76
2021/09/15 00:11:07;;;;;;;12.15;4.68;;;18.00;99.90;;;;;;4931228;29;20032;-77
2021/09/15 00:13:33;;;;;;;7.00;4.18;;;18.00;99.90;;;;;;4930684;29;20029;-76
2021/09/15 00:15:58;;;;;;;7.45;3.83;;;18.00;99.90;;;;;;4930660;29;20040;-77
2021/09/15 00:18:25;;;;;;;6.90;4.22;;;18.00;99.90;;;;;;4914019;29;20100;-77
2021/09/15 00:20:50;;;;;;;6.43;4.20;;;18.00;99.90;;;;;;4913674;29;20040;-78
2021/09/15 00:23:17;;;;;;;9.05;5.13;;;18.00;99.90;;;;;;4930859;29;20091;-76
2021/09/15 00:25:44;;;;;;;6.90;4.43;;;18.00;99.90;;;;;;4930853;29;20016;-78
2021/09/15 00:28:09;;;;;;;7.85;4.45;;;18.00;99.90;;;;;;4930369;29;20103;-77
2021/09/15 00:30:35;;;;;;;7.28;3.58;;;18.00;99.90;;;;;;4930585;29;20032;-78
2021/09/15 00:33:00;;;;;;;8.27;4.78;;;18.00;99.90;;;;;;4930830;29;20060;-77
2021/09/15 00:35:26;;;;;;;8.40;4.30;;;17.90;99.90;;;;;;4913214;29;20024;-77
2021/09/15 00:37:52;;;;;;;9.63;5.05;;;18.00;99.90;;;;;;4913631;29;20024;-78
2021/09/15 00:40:17;;;;;;;6.88;4.13;;;17.90;99.90;;;;;;4930821;29;20028;-79
2021/09/15 00:42:44;;;;;;;8.38;4.50;;;17.80;99.90;;;;;;4930406;29;20038;-77
2021/09/15 00:45:10;;;;;;;8.27;3.95;;;17.90;99.90;;;;;;4930222;29;20048;-77
2021/09/15 00:47:36;;;;;;;6.78;4.47;;;17.90;99.90;;;;;;4930474;29;20511;-78
2021/09/15 00:50:02;;;;;;;9.52;4.60;;;17.90;99.90;;;;;;4930157;29;20063;-76
2021/09/15 00:52:28;;;;;;;9.38;4.85;;;17.90;99.90;;;;;;4930540;29;20060;-77
2021/09/15 00:54:53;;;;;;;5.80;3.85;;;17.80;99.90;;;;;;4930003;29;20628;-77
2021/09/15 00:57:19;;;;;;;7.22;4.60;;;17.80;99.90;;;;;;4912192;29;20036;-77
2021/09/15 00:59:45;;;;;;;12.50;5.22;;;17.80;99.90;;;;;;4930398;29;20028;-77
2021/09/15 01:02:10;;;;;;;6.13;3.80;;;17.80;99.90;;;;;;4912772;29;20032;-77
2021/09/15 01:04:37;;;;;;;7.10;4.05;;;17.80;99.90;;;;;;4930238;29;20028;-76
2021/09/15 01:07:02;;;;;;;7.75;4.43;;;17.80;99.90;;;;;;4929916;29;20044;-76
2021/09/15 01:09:31;;;;;;;8.15;4.25;;;17.80;99.90;;;;;;4912639;29;20032;-77
2021/09/15 01:11:58;;;;;;;12.30;5.80;;;17.80;99.90;;;;;;4930171;29;20489;-76
2021/09/15 01:14:24;;;;;;;8.93;5.00;;;17.80;99.90;;;;;;4929988;29;20035;-77
2021/09/15 01:16:53;;;;;;;12.10;5.13;;;17.80;99.90;;;;;;4929471;29;20064;-77
2021/09/15 01:19:21;;;;;;;9.90;4.38;;;17.80;99.90;;;;;;4929748;29;20028;-78
2021/09/15 01:21:53;;;;;;;8.23;4.20;;;17.80;99.90;;;;;;4912836;29;20029;-76
2021/09/15 01:24:20;;;;;;;7.13;4.55;;;17.80;99.90;;;;;;4929676;29;20103;-77
2021/09/15 01:26:47;;;;;;;11.15;4.25;;;17.80;99.90;;;;;;4929946;29;20504;-76
2021/09/15 01:29:16;;;;;;;7.68;4.95;;;17.80;99.90;;;;;;4912651;29;20437;-76
2021/09/15 01:32:06;;;;;;;7.45;4.45;;;17.70;99.90;;;;;;4928920;29;20036;-75
2021/09/15 01:34:40;;;;;;;11.30;5.40;;;17.80;99.90;;;;;;4929577;29;20028;-76
2021/09/15 01:37:07;;;;;;;;;;;17.70;99.90;;;;;;4912756;29;20035;-75
2021/09/15 01:39:33;;;;;;;6.35;3.85;;;17.70;99.90;;;;;;4930027;29;19907;-77
2021/09/15 01:42:00;;;;;;;11.52;5.35;;;17.80;99.90;;;;;;4912443;29;20056;-77
2021/09/15 01:44:46;;;;;;;8.80;5.03;;;17.60;99.90;;;;;;4911860;29;20103;-77
2021/09/15 01:47:14;;;;;;;8.75;4.82;;;17.70;99.90;;;;;;4908972;29;20060;-77
2021/09/15 01:49:41;;;;;;;9.52;5.38;;;17.80;99.90;;;;;;4910385;29;20071;-77
2021/09/15 01:52:08;;;;;;;11.57;5.50;;;17.70;99.90;;;;;;4910182;29;20064;-76
2021/09/15 01:54:34;;;;;;;12.20;4.40;;;17.70;99.90;;;;;;4910445;29;20089;-76
2021/09/15 01:57:00;;;;;;;8.02;5.00;;;17.60;99.90;;;;;;4910059;29;20028;-77
2021/09/15 01:59:26;;;;;;;8.57;4.97;;;17.60;99.90;;;;;;4910011;29;20100;-77
2021/09/15 02:01:53;;;;;;;8.13;4.15;;;17.60;99.90;;;;;;4910214;29;20028;-77
2021/09/15 02:04:19;;;;;;;9.75;5.40;;;17.50;99.90;;;;;;4909953;29;20064;-77
2021/09/15 02:06:45;;;;;;;8.95;5.22;;;17.60;99.90;;;;;;4910114;29;20055;-77
2021/09/15 02:09:11;;;;;;;9.13;4.75;;;17.50;99.90;;;;;;4909968;29;20033;-76
2021/09/15 02:11:37;;;;;;;13.18;5.72;;;17.60;99.90;;;;;;4909734;29;20039;-78
2021/09/15 02:14:04;;;;;;;9.30;5.13;;;17.50;99.90;;;;;;4909939;29;20057;-76
2021/09/15 02:16:30;;;;;;;9.07;4.93;;;17.50;99.90;;;;;;4909651;29;20040;-76
2021/09/15 02:18:55;;;;;;;11.07;5.22;;;17.50;99.90;;;;;;4908414;29;20035;-76
2021/09/15 02:21:21;;;;;;;9.05;4.88;;;17.50;99.90;;;;;;4910001;29;20060;-76
2021/09/15 02:23:47;;;;;;;14.82;5.80;;;17.50;99.90;;;;;;4908603;29;20029;-76
2021/09/15 02:26:16;;;;;;;8.48;5.03;;;17.50;99.90;;;;;;4909615;29;20054;-77
2021/09/15 02:28:43;;;;;;;12.90;5.88;;;17.50;99.90;;;;;;4908307;29;20421;-77
2021/09/15 02:31:09;;;;;;;7.65;5.13;;;17.50;99.90;;;;;;4907949;29;20039;-75
2021/09/15 02:33:35;;;;;;;13.50;6.50;;;17.50;99.90;;;;;;4908324;29;20045;-76
2021/09/15 02:36:00;;;;;;;7.70;4.80;;;17.50;99.90;;;;;;4909390;29;20052;-75
2021/09/15 02:38:27;;;;;;;9.52;5.30;;;17.40;99.90;;;;;;4909423;29;20080;-78
2021/09/15 02:40:52;;;;;;;9.25;5.45;;;17.60;99.90;;;;;;4909550;29;20060;-76
2021/09/15 02:43:18;;;;;;;10.45;5.40;;;17.40;99.90;;;;;;4908565;29;20036;-77
2021/09/15 02:45:44;;;;;;;13.10;4.72;;;17.40;99.90;;;;;;4914020;29;20604;-79
2021/09/15 02:48:10;;;;;;;10.07;5.50;;;17.40;99.90;;;;;;4911313;29;20067;-78
2021/09/15 02:50:36;;;;;;;9.02;5.22;;;17.50;99.90;;;;;;4928749;29;20079;-78
2021/09/15 02:53:02;;;;;;;12.70;5.88;;;17.40;99.90;;;;;;4928215;29;20036;-78
2021/09/15 02:55:28;;;;;;;13.13;6.43;;;17.40;99.90;;;;;;4911340;29;20030;-82
2021/09/15 02:57:53;;;;;;;12.48;5.65;;;17.40;99.90;;;;;;4911024;29;20059;-78
2021/09/15 03:00:20;;;;;;;9.63;5.30;;;17.30;99.90;;;;;;4928066;29;20040;-79
2021/09/15 03:02:46;;;;;;;10.23;6.03;;;17.30;99.90;;;;;;4928850;29;20039;-78
2021/09/15 03:05:11;;;;;;;11.38;6.15;;;17.30;99.90;;;;;;4928300;29;20059;-78
2021/09/15 03:07:37;;;;;;;12.93;7.03;;;17.30;99.90;;;;;;4911129;29;20038;-78
2021/09/15 03:10:05;;;;;;;10.73;5.85;;;17.20;99.90;;;;;;4911361;29;20032;-78
2021/09/15 03:12:30;;;;;;;13.38;6.05;;;17.20;99.90;;;;;;4910677;29;20496;-78
2021/09/15 03:14:56;;;;;;;10.15;5.57;;;17.20;99.90;;;;;;4910791;29;20029;-77
2021/09/15 03:17:23;;;;;;;13.20;6.38;;;17.20;99.90;;;;;;4928181;29;20462;-78
2021/09/15 03:19:48;;;;;;;10.77;6.28;;;17.20;99.90;;;;;;4910903;29;20028;-78
2021/09/15 03:22:14;;;;;;;10.65;6.40;;;17.20;99.90;;;;;;4932011;29;20084;-78
2021/09/15 03:24:40;;;;;;;10.82;6.10;;;17.10;99.90;;;;;;4932134;29;20032;-79
2021/09/15 03:27:05;;;;;;;9.90;6.40;;;17.20;99.90;;;;;;4914352;29;20048;-79
2021/09/15 03:29:33;;;;;;;14.00;6.95;;;17.20;99.90;;;;;;4914814;29;20032;-79
2021/09/15 03:31:59;;;;;;;9.27;5.88;;;17.10;99.90;;;;;;4931798;29;20048;-79
2021/09/15 03:34:24;;;;;;;13.93;6.05;;;17.20;99.90;;;;;;4931480;29;20061;-79
2021/09/15 03:36:53;;;;;;;12.07;6.30;;;17.10;99.90;;;;;;4914866;29;20032;-80
2021/09/15 03:39:20;;;;;;;10.50;6.45;;;17.10;99.90;;;;;;4931911;29;20040;-79
2021/09/15 03:41:46;;;;;;;13.55;6.07;;;17.10;99.90;;;;;;4931525;29;20039;-80
2021/09/15 03:44:12;;;;;;;12.05;6.43;;;17.10;99.90;;;;;;4932061;29;20052;-79
2021/09/15 03:46:38;;;;;;;14.07;6.00;;;17.10;99.90;;;;;;4930714;29;20084;-79
2021/09/15 03:49:04;;;;;;;13.75;7.03;;;17.10;99.90;;;;;;4914271;29;20568;-78
2021/09/15 03:51:31;;;;;;;10.88;6.55;;;17.10;99.90;;;;;;4931436;29;20115;-79
2021/09/15 03:54:00;;;;;;;10.90;6.30;;;17.10;99.90;;;;;;4914193;29;20028;-81
2021/09/15 03:56:26;;;;;;;13.00;6.93;;;17.10;99.90;;;;;;4931283;29;20084;-79
2021/09/15 03:58:51;;;;;;;10.57;5.90;;;17.10;99.90;;;;;;4914326;29;20090;-79
2021/09/15 04:01:17;;;;;;;18.92;6.40;;;17.10;99.90;;;;;;4931458;29;20083;-79
2021/09/15 04:03:43;;;;;;;14.70;7.00;;;17.00;99.90;;;;;;4931354;29;20062;-80
2021/09/15 04:06:09;;;;;;;11.20;6.07;;;17.00;99.90;;;;;;4931275;29;20049;-78
2021/09/15 04:08:34;;;;;;;9.10;5.63;;;17.00;99.90;;;;;;4930894;29;20040;-79
2021/09/15 04:11:00;;;;;;;13.65;6.60;;;17.00;99.90;;;;;;4914309;29;20036;-78
2021/09/15 04:13:26;;;;;;;17.75;6.95;;;16.90;99.90;;;;;;4931092;29;20374;-80
2021/09/15 04:15:52;;;;;;;15.05;7.80;;;17.00;99.90;;;;;;4913720;29;20024;-78
2021/09/15 04:18:18;;;;;;;12.10;6.72;;;16.90;99.90;;;;;;4931402;29;20438;-79
2021/09/15 04:20:46;;;;;;;12.07;7.07;;;17.00;99.90;;;;;;4930885;29;20052;-77
2021/09/15 04:23:21;;;;;;;12.43;6.90;;;16.90;99.90;;;;;;4913678;29;20028;-78
2021/09/15 04:31:24;;;;;;;15.88;6.20;;;17.00;99.90;;;;;;4930869;29;20051;-78
2021/09/15 04:33:51;;;;;;;13.25;6.22;;;16.90;99.90;;;;;;4913967;29;20099;-79
2021/09/15 04:36:17;;;;;;;11.50;6.43;;;16.90;99.90;;;;;;4930463;29;20031;-78
2021/09/15 04:38:43;;;;;;;11.93;6.75;;;16.90;99.90;;;;;;4913876;29;20060;-78
2021/09/15 04:41:10;;;;;;;15.18;7.25;;;17.00;99.90;;;;;;4913512;29;20032;-78
2021/09/15 04:43:36;;;;;;;11.32;7.03;;;17.00;99.90;;;;;;4928787;29;20055;-78
2021/09/15 04:46:01;;;;;;;13.68;7.05;;;17.00;99.90;;;;;;4930135;29;20052;-78
2021/09/15 04:48:29;;;;;;;16.25;7.63;;;17.00;99.90;;;;;;4930378;29;20039;-79
2021/09/15 04:50:55;;;;;;;13.15;7.38;;;17.00;99.90;;;;;;4930354;29;20485;-78
2021/09/15 04:53:21;;;;;;;11.48;6.72;;;17.00;99.90;;;;;;4930475;29;20033;-80
2021/09/15 04:55:47;;;;;;;12.95;7.20;;;17.00;99.90;;;;;;4930188;29;20393;-79
2021/09/15 04:58:13;;;;;;;13.60;7.82;;;16.90;99.90;;;;;;4913627;29;20054;-78
2021/09/15 05:00:38;;;;;;;13.82;7.45;;;16.90;99.90;;;;;;4930199;29;20032;-80
2021/09/15 05:03:04;;;;;;;14.20;7.95;;;16.90;99.90;;;;;;4929948;29;20035;-79
2021/09/15 05:05:30;;;;;;;10.90;6.78;;;16.90;99.90;;;;;;4930733;29;20046;-79
2021/09/15 05:07:55;;;;;;;10.80;6.65;;;17.00;99.90;;;;;;4930599;29;20044;-78
2021/09/15 05:10:25;;;;;;;17.33;7.03;;;17.00;99.90;;;;;;4930685;29;20024;-78
2021/09/15 05:12:54;;;;;;;13.85;6.65;;;17.00;99.90;;;;;;4913728;29;20086;-79
2021/09/15 05:15:21;;;;;;;14.95;7.35;;;17.00;99.90;;;;;;4930276;29;20055;-80
2021/09/15 05:17:47;;;;;;;13.00;7.47;;;17.10;99.90;;;;;;4911430;29;20036;-79
2021/09/15 05:20:16;;;;;;;15.20;7.70;;;17.00;99.90;;;;;;4929547;29;20724;-79
2021/09/15 05:22:43;;;;;;;13.77;7.82;;;17.00;99.90;;;;;;4913215;29;20056;-80
2021/09/15 05:25:09;;;;;;;22.08;7.30;;;17.00;99.90;;;;;;4913020;29;20040;-78
2021/09/15 05:27:35;;;;;;;18.92;7.78;;;17.00;99.90;;;;;;4930013;29;20043;-77
2021/09/15 05:30:01;;;;;;;15.80;8.30;;;17.00;99.90;;;;;;4912651;29;20032;-75
2021/09/15 05:32:26;;;;;;;17.52;7.72;;;17.00;99.90;;;;;;4912688;29;20020;-77
2021/09/15 05:34:52;;;;;;;18.67;8.45;;;17.00;99.90;;;;;;4923641;29;20504;-78
2021/09/15 05:37:19;;;;;;;13.80;8.07;;;17.00;99.90;;;;;;4924174;29;20036;-77
2021/09/15 05:39:45;;;;;;;19.70;8.27;;;17.00;99.90;;;;;;4923813;29;20056;-76
2021/09/15 05:42:10;;;;;;;19.63;9.02;;;16.90;99.90;;;;;;4912590;29;20028;-75
2021/09/15 05:44:36;;;;;;;14.25;7.85;;;17.00;99.90;;;;;;4909171;29;20132;-75
2021/09/15 05:47:02;;;;;;;18.10;8.70;;;16.90;99.90;;;;;;4921921;29;20052;-75
2021/09/15 05:49:28;;;;;;;23.52;8.13;;;16.90;99.90;;;;;;4922810;29;20092;-74
2021/09/15 05:51:53;;;;;;;18.67;8.45;;;16.90;99.90;;;;;;4921610;29;20031;-75
2021/09/15 05:54:19;;;;;;;14.30;7.68;;;16.90;99.90;;;;;;4923321;29;20041;-74
2021/09/15 05:56:47;;;;;;;17.15;9.13;;;16.90;99.90;;;;;;4927883;29;20036;-75
2021/09/15 05:59:13;;;;;;;17.30;9.15;;;16.90;99.90;;;;;;4912002;29;20043;-75
2021/09/15 06:01:38;;;;;;;14.50;8.18;;;16.90;99.90;;;;;;4928956;29;20031;-74
2021/09/15 06:04:04;;;;;;;14.02;8.23;;;16.90;99.90;;;;;;4911932;29;20032;-74
2021/09/15 06:06:30;;;;;;;24.75;8.93;;;16.80;99.90;;;;;;4923044;29;20082;-74
2021/09/15 06:08:55;;;;;;;13.07;7.13;;;16.80;99.90;;;;;;4922260;29;20036;-75
2021/09/15 06:11:21;;;;;;;12.13;7.32;;;16.80;99.90;;;;;;4929205;29;20087;-76
2021/09/15 06:13:48;;;;;;;10.00;6.32;;;16.70;99.90;;;;;;4928499;29;20084;-76
2021/09/15 06:16:16;;;;;;;18.23;8.60;;;16.70;99.90;;;;;;4928007;29;20033;-74
2021/09/15 06:18:41;;;;;;;16.10;8.60;;;16.70;99.90;;;;;;4927482;29;20091;-74
2021/09/15 06:21:07;;;;;;;15.18;8.02;;;16.70;99.90;;;;;;4928329;29;20039;-74
2021/09/15 06:23:39;;;;;;;25.58;9.15;;;16.70;99.90;;;;;;4928709;29;20032;-75
2021/09/15 06:26:05;;;;;;;18.67;9.65;;;16.70;99.90;;;;;;4928887;29;20036;-74
2021/09/15 06:28:31;;;;;;;16.63;9.40;;;16.80;99.90;;;;;;4925851;29;20560;-74
2021/09/15 06:30:58;;;;;;;17.00;8.57;;;16.80;99.90;;;;;;4925369;29;20039;-75
2021/09/15 06:33:24;;;;;;;19.58;8.77;;;16.90;99.90;;;;;;4924817;29;20466;-73
2021/09/15 06:35:51;;;;;;;16.23;8.90;;;16.90;99.90;;;;;;4927755;29;20059;-74
2021/09/15 06:38:19;;;;;;;17.40;8.40;;;16.90;99.90;;;;;;4928253;29;20051;-74
2021/09/15 06:40:46;;;;;;;15.80;8.77;;;16.90;99.90;;;;;;4928544;29;20113;-75
2021/09/15 06:43:11;;;;;;;21.98;9.60;;;16.90;99.90;;;;;;4910899;29;20029;-74
2021/09/15 06:45:37;;;;;;;17.65;8.38;;;16.80;99.90;;;;;;4891726;29;20395;-75
2021/09/15 06:48:04;;;;;;;16.50;8.93;;;16.90;99.90;;;;;;4908332;29;20036;-75
2021/09/15 06:50:30;;;;;;;16.17;8.38;;;16.90;99.90;;;;;;4909457;29;20031;-74
2021/09/15 06:52:55;;;;;;;19.13;9.35;;;16.90;99.90;;;;;;4909548;29;20020;-74
2021/09/15 06:55:25;;;;;;;15.90;9.40;;;16.90;99.90;;;;;;4908285;29;20085;-76
2021/09/15 06:57:51;;;;;;;21.02;10.10;;;16.90;99.90;;;;;;4908110;29;20502;-76
2021/09/15 07:00:18;;;;;;;21.15;9.57;;;16.90;99.90;;;;;;4917734;29;20058;-75
2021/09/15 07:02:47;;;;;;;17.77;9.25;;;17.00;99.90;;;;;;4910952;29;20389;-75
2021/09/15 07:05:14;;;;;;;18.17;9.23;;;17.00;99.90;;;;;;4928764;29;20028;-75
2021/09/15 07:07:40;;;;;;;17.73;9.55;;;17.00;99.90;;;;;;4928488;29;20039;-73
2021/09/15 07:10:07;;;;;;;25.55;10.95;;;17.10;99.90;;;;;;4928128;29;20389;-74
2021/09/15 07:12:34;;;;;;;17.10;9.05;;;17.10;99.90;;;;;;4928632;29;20111;-74
2021/09/15 07:14:59;;;;;;;25.33;10.35;;;17.20;99.90;;;;;;4928419;29;20028;-74
2021/09/15 07:17:25;;;;;;;19.77;9.68;;;17.30;99.90;;;;;;4910259;29;20063;-74
2021/09/15 07:19:50;;;;;;;20.13;10.48;;;17.20;99.90;;;;;;4928413;29;20087;-75
2021/09/15 07:22:17;;;;;;;16.45;9.93;;;17.30;99.90;;;;;;4920136;29;20100;-75
2021/09/15 07:24:42;;;;;;;17.50;9.48;;;17.30;99.90;;;;;;4926751;29;20477;-75
2021/09/15 07:27:08;;;;;;;18.98;9.20;;;17.30;99.90;;;;;;4911545;29;20047;-74
2021/09/15 07:29:33;;;;;;;18.85;9.88;;;17.40;99.90;;;;;;4892496;29;20827;-74
2021/09/15 07:31:59;;;;;;;25.10;8.75;;;17.40;99.90;;;;;;4924888;29;20040;-74
2021/09/15 07:34:25;;;;;;;18.05;9.27;;;17.40;99.90;;;;;;4928362;29;20037;-76
2021/09/15 07:36:50;;;;;;;14.68;8.80;;;17.40;99.90;;;;;;4921859;29;20048;-75
2021/09/15 07:39:16;;;;;;;20.45;9.75;;;17.40;99.90;;;;;;4910555;29;20064;-74
2021/09/15 07:41:42;;;;;;;16.98;8.30;;;17.40;99.90;;;;;;4908600;29;20427;-75
2021/09/15 07:44:07;;;;;;;17.05;9.52;;;17.40;99.90;;;;;;4908151;29;20024;-75
2021/09/15 07:46:33;;;;;;;18.90;9.32;;;17.40;99.90;;;;;;4908540;29;20071;-75
2021/09/15 07:49:00;;;;;;;16.80;9.50;;;17.50;99.90;;;;;;4925850;29;20084;-76
2021/09/15 07:51:25;;;;;;;15.50;9.27;;;17.50;99.90;;;;;;4909196;29;20040;-74
2021/09/15 07:53:51;;;;;;;22.08;10.85;;;17.50;99.90;;;;;;4909402;29;20032;-75
2021/09/15 07:56:17;;;;;;;19.92;9.00;;;17.50;99.90;;;;;;4915179;29;20037;-75
2021/09/15 07:58:42;;;;;;;20.63;9.98;;;17.50;99.90;;;;;;4927170;29;20476;-75
2021/09/15 08:01:08;;;;;;;17.42;9.40;;;17.50;99.90;;;;;;4898385;29;20520;-75
2021/09/15 08:03:34;;;;;;;20.55;9.60;;;17.50;99.90;;;;;;4897901;29;20089;-75
2021/09/15 08:06:04;;;;;;;21.75;10.02;;;17.60;99.90;;;;;;4890967;29;20033;-74
2021/09/15 08:08:30;;;;;;;16.60;8.93;;;17.60;99.90;;;;;;4898371;29;20041;-74
2021/09/15 08:10:55;;;;;;;21.08;10.25;;;17.60;99.90;;;;;;4921823;29;20025;-75
2021/09/15 08:13:24;;;;;;;20.27;10.20;;;17.70;99.90;;;;;;4909618;29;20032;-76
2021/09/15 08:15:49;;;;;;;17.83;9.60;;;17.60;99.90;;;;;;4909983;29;20031;-75
2021/09/15 08:18:16;;;;;;;14.48;8.13;;;17.60;99.90;;;;;;4924713;29;20036;-75
2021/09/15 08:20:45;;;;;;;13.85;9.30;;;17.60;99.90;;;;;;4907204;29;20029;-74
2021/09/15 08:23:17;;;;;;;14.65;8.07;;;17.60;99.90;;;;;;4909316;29;20407;-74
2021/09/15 08:25:43;;;;;;;17.27;9.75;;;17.50;99.90;;;;;;4915860;29;21146;-73
2021/09/15 08:28:09;;;;;;;20.02;11.25;;;17.60;99.90;;;;;;4928836;29;20044;-74
2021/09/15 08:30:35;;;;;;;18.95;10.70;;;17.50;99.90;;;;;;4911825;29;20036;-74
2021/09/15 08:33:00;;;;;;;22.92;11.25;;;17.60;99.90;;;;;;4929950;29;20032;-73
2021/09/15 08:35:27;;;;;;;20.83;9.52;;;17.60;99.90;;;;;;4923922;29;20033;-75
2021/09/15 08:37:52;;;;;;;21.17;11.10;;;17.60;99.90;;;;;;4923721;29;20052;-73
2021/09/15 08:40:18;;;;;;;21.50;10.43;;;17.60;99.90;;;;;;4919683;29;20032;-73
2021/09/15 08:42:45;;;;;;;23.30;11.07;;;17.60;99.90;;;;;;4921164;29;20039;-74
2021/09/15 08:45:13;;;;;;;29.75;11.20;;;17.60;99.90;;;;;;4929718;29;20044;-75
2021/09/15 08:47:46;;;;;;;29.48;11.77;;;17.60;99.90;;;;;;4907861;29;20147;-74
2021/09/15 08:50:14;;;;;;;22.85;11.43;;;17.70;99.90;;;;;;4907133;29;20024;-74
2021/09/15 08:52:41;;;;;;;20.55;11.57;;;17.70;99.90;;;;;;4903170;29;20475;-73
2021/09/15 08:55:08;;;;;;;24.48;11.88;;;17.70;99.90;;;;;;4897728;29;20045;-73
2021/09/15 08:57:34;;;;;;;27.35;11.35;;;17.80;99.90;;;;;;4893383;29;20069;-73
2021/09/15 09:00:00;;;;;;;18.77;10.80;;;17.80;99.90;;;;;;4898301;29;20037;-74
2021/09/15 09:02:33;;;;;;;23.23;11.60;;;17.80;99.90;;;;;;4900410;29;20044;-73
2021/09/15 09:05:01;;;;;;;20.70;12.05;;;17.80;99.90;;;;;;4903791;29;20466;-74
2021/09/15 09:07:28;;;;;;;21.50;11.55;;;17.80;99.90;;;;;;4910956;29;20043;-75
2021/09/15 09:09:56;;;;;;;23.08;11.25;;;17.80;99.90;;;;;;4911054;29;20021;-74
2021/09/15 09:12:24;;;;;;;25.90;11.73;;;17.80;99.90;;;;;;4910145;29;20028;-73
2021/09/15 09:14:51;;;;;;;31.38;12.85;;;17.80;99.90;;;;;;4911116;29;20037;-75
2021/09/15 09:17:27;;;;;;;20.63;10.65;;;17.80;99.90;;;;;;4910461;29;20036;-73
2021/09/15 09:20:19;;;;;;;17.55;9.68;;;17.80;99.90;;;;;;4907508;29;20036;-75
2021/09/15 09:23:14;;;;;;;21.85;11.45;;;17.80;99.90;;;;;;4897388;29;20053;-74
2021/09/15 09:25:50;;;;;;;25.70;11.68;;;17.80;99.90;;;;;;4910475;29;20029;-73
2021/09/15 09:28:24;;;;;;;21.67;12.13;;;17.90;99.90;;;;;;4903644;29;20044;-74
2021/09/15 09:30:53;;;;;;;24.30;12.07;;;17.90;99.90;;;;;;4910382;29;20037;-74
2021/09/15 09:33:19;;;;;;;19.70;10.50;;;18.00;99.90;;;;;;4899644;29;20131;-73
2021/09/15 09:35:45;;;;;;;23.38;9.65;;;18.00;99.90;;;;;;4909775;29;20028;-74
2021/09/15 09:38:22;;;;;;;20.52;11.60;;;18.00;99.90;;;;;;4909442;29;20043;-74
2021/09/15 09:41:06;;;;;;;21.35;10.75;;;18.00;99.90;;;;;;4909790;29;20025;-74
2021/09/15 09:43:41;;;;;;;18.33;10.27;;;18.00;99.90;;;;;;4909939;29;20035;-74
2021/09/15 09:46:11;;;;;;;23.73;10.73;;;18.00;99.90;;;;;;4915034;29;20070;-74
2021/09/15 09:48:54;;;;;;;18.63;10.82;;;18.00;99.90;;;;;;4923022;29;20096;-74
2021/09/15 09:51:34;;;;;;;17.23;10.20;;;17.90;99.90;;;;;;4898663;29;20649;-75
2021/09/15 09:54:21;;;;;;;20.27;10.50;;;17.90;99.90;;;;;;4916159;29;20039;-74
2021/09/15 09:56:49;;;;;;;17.88;11.35;;;17.90;99.90;;;;;;4897427;29;20036;-75
2021/09/15 09:59:18;;;;;;;25.20;12.70;;;18.00;99.90;;;;;;4919203;29;20028;-73
2021/09/15 10:01:49;;;;;;;24.52;12.18;;;17.90;99.90;;;;;;4920912;29;20115;-75
2021/09/15 10:04:20;;;;;;;23.33;13.15;;;17.90;99.90;;;;;;4910283;29;20036;-74
2021/09/15 10:06:46;;;;;;;23.13;11.95;;;17.90;99.90;;;;;;4923626;29;20070;-74
2021/09/15 10:09:12;;;;;;;39.35;13.55;;;17.80;99.90;;;;;;4935788;29;20143;-73
2021/09/15 10:11:39;;;;;;;24.85;12.85;;;18.00;99.90;;;;;;4915136;29;20481;-73
2021/09/15 10:14:09;;;;;;;24.98;12.48;;;17.90;99.90;;;;;;4922473;29;20040;-74
2021/09/15 10:16:51;;;;;;;23.45;11.60;;;18.00;99.90;;;;;;4919180;29;20037;-73
2021/09/15 10:19:26;;;;;;;25.25;12.30;;;18.00;99.90;;;;;;4908599;29;20061;-74
2021/09/15 10:21:59;;;;;;;23.40;12.02;;;18.00;99.90;;;;;;4921047;29;20032;-74
2021/09/15 10:24:55;;;;;;;21.70;11.38;;;18.10;99.90;;;;;;4927802;29;20189;-73
2021/09/15 10:27:25;;;;;;;25.75;12.40;;;18.10;99.90;;;;;;4925551;29;20063;-73
2021/09/15 10:30:09;;;;;;;23.75;12.75;;;18.10;99.90;;;;;;4925866;29;20479;-74
2021/09/15 10:32:38;;;;;;;22.08;11.30;;;18.10;99.90;;;;;;4908944;29;20107;-73
2021/09/15 10:35:08;;;;;;;26.85;12.93;;;18.10;99.90;;;;;;4908639;29;20032;-73
2021/09/15 10:37:40;;;;;;;24.90;13.27;;;18.10;99.90;;;;;;4910732;29;20036;-74
2021/09/15 10:40:11;;;;;;;27.95;13.32;;;18.10;99.90;;;;;;4912992;29;20039;-73
2021/09/15 10:42:47;;;;;;;28.50;12.32;;;18.10;99.90;;;;;;4919034;29;20025;-74
2021/09/15 10:45:29;;;;;;;17.17;10.73;;;18.10;99.90;;;;;;4913617;29;20060;-74
2021/09/15 10:48:15;;;;;;;20.73;11.07;;;18.10;99.90;;;;;;4911375;29;20048;-74
2021/09/15 10:50:41;;;;;;;23.00;12.35;;;18.10;99.90;;;;;;4917025;29;20059;-74
2021/09/15 10:53:07;;;;;;;21.42;12.25;;;18.10;99.90;;;;;;4912589;29;20036;-73
2021/09/15 10:56:00;;;;;;;23.27;12.70;;;18.10;99.90;;;;;;4906713;29;20024;-73
2021/09/15 10:58:43;;;;;;;23.75;11.85;;;18.00;99.90;;;;;;4891866;29;20059;-73
2021/09/15 11:01:11;;;;;;;28.67;13.10;;;18.00;99.90;;;;;;4907998;29;20495;-74
2021/09/15 11:03:50;;;;;;;20.13;11.77;;;18.00;99.90;;;;;;4906852;29;20028;-73
2021/09/15 11:06:17;;;;;;;20.38;11.98;;;18.10;99.90;;;;;;4925698;29;20034;-75
2021/09/15 11:08:49;;;;;;;24.73;12.27;;;18.00;99.90;;;;;;4940827;29;20468;-74
2021/09/15 11:11:36;;;;;;;20.50;11.07;;;18.00;99.90;;;;;;4927235;29;20028;-74
2021/09/15 11:14:09;;;;;;;20.02;11.27;;;18.00;99.90;;;;;;4926831;29;20122;-74
2021/09/15 11:16:40;;;;;;;19.00;11.25;;;17.90;99.90;;;;;;4926848;29;20066;-74
2021/09/15 11:19:14;;;;;;;25.58;12.73;;;17.90;99.90;;;;;;4909504;29;20781;-75
2021/09/15 11:21:56;;;;;;;26.75;13.07;;;17.90;99.90;;;;;;4927615;29;20029;-74
2021/09/15 11:24:23;;;;;;;27.40;12.75;;;18.00;99.90;;;;;;4927652;29;20162;-74
2021/09/15 11:26:52;;;;;;;23.35;13.25;;;17.90;99.90;;;;;;4927855;29;20040;-75
2021/09/15 11:29:48;;;;;;;25.17;12.52;;;18.00;99.90;;;;;;4927238;29;20028;-73
2021/09/15 11:32:17;;;;;;;23.33;12.02;;;17.90;99.90;;;;;;4910806;29;20068;-74
2021/09/15 11:34:54;;;;;;;22.50;12.23;;;17.90;99.90;;;;;;4928174;29;20060;-75
2021/09/15 11:37:21;;;;;;;34.88;13.40;;;17.90;99.90;;;;;;4913898;29;20052;-74
2021/09/15 11:40:05;;;;;;;24.90;12.75;;;18.00;99.90;;;;;;4907854;29;20111;-74
2021/09/15 11:42:35;;;;;;;25.88;12.65;;;17.90;99.90;;;;;;4930824;29;20043;-73
2021/09/15 11:45:27;;;;;;;27.83;12.40;;;18.00;99.90;;;;;;4913754;29;20119;-73
2021/09/15 11:47:55;;;;;;;23.27;11.70;;;18.00;99.90;;;;;;4888066;29;20063;-72
2021/09/15 11:50:23;;;;;;;24.92;12.25;;;18.00;99.90;;;;;;4883193;29;20017;-74
2021/09/15 11:52:57;;;;;;;21.27;11.63;;;18.00;99.90;;;;;;4881373;29;20102;-74
2021/09/15 11:55:24;;;;;;;;;;;18.00;99.90;;;;;;4878437;29;20026;-74
2021/09/15 11:57:51;;;;;;;27.45;11.20;;;18.00;99.90;;;;;;4883805;29;19931;-73
2021/09/15 12:00:20;;;;;;;19.33;10.40;;;18.00;99.90;;;;;;4880158;29;20033;-74
2021/09/15 12:02:48;;;;;;;26.45;12.48;;;18.00;99.90;;;;;;4891867;29;20033;-74
2021/09/15 12:05:19;;;;;;;23.40;13.02;;;18.00;99.90;;;;;;4893499;29;20124;-76
2021/09/15 12:07:45;;;;;;;21.70;11.35;;;18.00;99.90;;;;;;4881307;29;20041;-75
2021/09/15 12:10:12;;;;;;;20.27;10.75;;;18.00;99.90;;;;;;4888318;29;20048;-72
2021/09/15 12:12:39;;;;;;;20.92;10.77;;;18.00;99.90;;;;;;4890409;29;20026;-73
2021/09/15 12:15:06;;;;;;;24.58;10.57;;;18.10;99.90;;;;;;4893119;29;20085;-74
2021/09/15 12:17:33;;;;;;;20.60;9.43;;;18.10;99.90;;;;;;4886795;29;20030;-73
2021/09/15 12:19:59;;;;;;;26.00;10.52;;;18.10;99.90;;;;;;4894249;29;20040;-74
2021/09/15 12:22:28;;;;;;;25.98;10.93;;;18.10;99.90;;;;;;4893166;29;20033;-75
2021/09/15 12:25:12;;;;;;;21.80;10.90;;;18.10;99.90;;;;;;4892332;29;20040;-74
2021/09/15 12:27:41;;;;;;;16.63;9.45;;;18.10;99.90;;;;;;4892160;29;20069;-74
2021/09/15 12:30:10;;;;;;;22.30;9.73;;;18.10;99.90;;;;;;4885915;29;20136;-72
2021/09/15 12:32:38;;;;;;;19.95;10.50;;;18.10;99.90;;;;;;4878300;29;20109;-72
2021/09/15 12:35:34;;;;;;;21.85;9.85;;;18.10;99.90;;;;;;4902606;29;20033;-73
2021/09/15 12:38:07;;;;;;;17.20;9.85;;;18.10;99.90;;;;;;4891523;29;20114;-74
2021/09/15 12:40:34;;;;;;;19.05;9.80;;;18.10;99.90;;;;;;4878448;29;20173;-75
2021/09/15 12:43:11;;;;;;;21.77;10.77;;;18.10;99.90;;;;;;4874153;29;20042;-73
2021/09/15 12:45:37;;;;;;;19.88;8.95;;;18.10;99.90;;;;;;4886499;29;20085;-73
2021/09/15 12:48:13;;;;;;;17.23;9.65;;;18.10;99.90;;;;;;4929762;29;20032;-73